sensor_id;sensor_type;location;lat;lon;timestamp;pressure;altitude;pressure_sealevel;temperature;humidity
24390;BME280;12510;56.468;-3.004;2023-05-19T00:02:20;101726.94;;;17.13;100.00
24390;BME280;12510;56.468;-3.004;2023-05-19T00:04:48;101731.38;;;16.76;100.00
24390;BME280;12510;56.468;-3.004;2023-05-19T00:07:17;101722.31;;;16.97;100.00
24390;BME280;12510;56.468;-3.004;2023-05-19T00:09:46;101725.09;;;17.13;100.00
24390;BME280;12510;56.468;-3.004;2023-05-19T00:12:13;101723.50;;;16.84;100.00
24390;BME280;12510;56.468;-3.004;2023-05-19T00:14:39;101712.31;;;16.81;100.00
24390;BME280;12510;56.468;-3.004;2023-05-19T00:17:06;101712.94;;;16.74;100.00
24390;BME280;12510;56.468;-3.004;2023-05-19T00:19:33;101718.44;;;16.63;100.00
24390;BME280;12510;56.468;-3.004;2023-05-19T00:21:59;101703.78;;;16.59;100.00
24390;BME280;12510;56.468;-3.004;2023-05-19T00:24:26;101710.72;;;16.42;100.00
24390;BME280;12510;56.468;-3.004;2023-05-19T00:26:52;101713.53;;;16.40;100.00
24390;BME280;12510;56.468;-3.004;2023-05-19T00:29:19;101715.19;;;16.23;100.00
24390;BME280;12510;56.468;-3.004;2023-05-19T00:31:45;101723.78;;;16.07;100.00
24390;BME280;12510;56.468;-3.004;2023-05-19T00:34:12;101719.16;;;16.37;100.00
24390;BME280;12510;56.468;-3.004;2023-05-19T00:36:39;101731.38;;;16.30;100.00
24390;BME280;12510;56.468;-3.004;2023-05-19T00:39:05;101738.38;;;15.74;100.00
24390;BME280;12510;56.468;-3.004;2023-05-19T00:41:31;101730.69;;;15.90;100.00
24390;BME280;12510;56.468;-3.004;2023-05-19T00:43:58;101729.28;;;15.86;100.00
24390;BME280;12510;56.468;-3.004;2023-05-19T00:46:25;101731.34;;;16.02;100.00
24390;BME280;12510;56.468;-3.004;2023-05-19T00:48:51;101735.03;;;16.19;100.00
24390;BME280;12510;56.468;-3.004;2023-05-19T00:51:18;101726.94;;;15.83;100.00
24390;BME280;12510;56.468;-3.004;2023-05-19T00:53:45;101728.06;;;15.81;100.00
24390;BME280;12510;56.468;-3.004;2023-05-19T00:56:15;101715.31;;;15.74;100.00
24390;BME280;12510;56.468;-3.004;2023-05-19T00:58:43;101710.16;;;15.73;100.00
24390;BME280;12510;56.468;-3.004;2023-05-19T01:01:09;101730.53;;;15.92;100.00
24390;BME280;12510;56.468;-3.004;2023-05-19T01:03:39;101718.31;;;15.99;100.00
24390;BME280;12510;56.468;-3.004;2023-05-19T01:06:07;101725.09;;;15.84;100.00
24390;BME280;12510;56.468;-3.004;2023-05-19T01:08:36;101726.50;;;15.78;100.00
24390;BME280;12510;56.468;-3.004;2023-05-19T01:11:06;101743.00;;;15.82;100.00
24390;BME280;12510;56.468;-3.004;2023-05-19T01:13:34;101745.38;;;15.85;100.00
24390;BME280;12510;56.468;-3.004;2023-05-19T01:19:02;101736.00;;;15.71;100.00
24390;BME280;12510;56.468;-3.004;2023-05-19T01:32:35;101721.59;;;15.73;100.00
24390;BME280;12510;56.468;-3.004;2023-05-19T01:35:04;101730.41;;;15.84;100.00
24390;BME280;12510;56.468;-3.004;2023-05-19T01:37:32;101742.28;;;15.89;100.00
24390;BME280;12510;56.468;-3.004;2023-05-19T01:39:59;101751.97;;;15.81;100.00
24390;BME280;12510;56.468;-3.004;2023-05-19T01:42:26;101746.47;;;15.72;100.00
24390;BME280;12510;56.468;-3.004;2023-05-19T01:44:53;101739.50;;;15.71;100.00
24390;BME280;12510;56.468;-3.004;2023-05-19T01:47:21;101742.44;;;15.78;100.00
24390;BME280;12510;56.468;-3.004;2023-05-19T01:49:47;101742.75;;;15.55;100.00
24390;BME280;12510;56.468;-3.004;2023-05-19T01:52:14;101744.38;;;15.76;100.00
24390;BME280;12510;56.468;-3.004;2023-05-19T01:54:40;101750.25;;;15.70;100.00
24390;BME280;12510;56.468;-3.004;2023-05-19T02:00:21;101772.75;;;15.66;100.00
24390;BME280;12510;56.468;-3.004;2023-05-19T02:03:18;101759.22;;;15.59;100.00
24390;BME280;12510;56.468;-3.004;2023-05-19T02:08:24;101751.38;;;15.57;100.00
24390;BME280;12510;56.468;-3.004;2023-05-19T02:11:04;101755.19;;;15.35;100.00
24390;BME280;12510;56.468;-3.004;2023-05-19T02:13:36;101762.44;;;15.04;100.00
24390;BME280;12510;56.468;-3.004;2023-05-19T02:16:07;101768.75;;;15.13;100.00
24390;BME280;12510;56.468;-3.004;2023-05-19T02:18:34;101772.34;;;15.21;100.00
24390;BME280;12510;56.468;-3.004;2023-05-19T02:21:01;101781.03;;;15.14;100.00
24390;BME280;12510;56.468;-3.004;2023-05-19T02:23:27;101781.72;;;15.06;100.00
24390;BME280;12510;56.468;-3.004;2023-05-19T02:25:56;101785.88;;;14.89;100.00
24390;BME280;12510;56.468;-3.004;2023-05-19T02:28:23;101775.78;;;14.83;100.00
24390;BME280;12510;56.468;-3.004;2023-05-19T02:30:53;101774.53;;;14.77;100.00
24390;BME280;12510;56.468;-3.004;2023-05-19T02:33:21;101781.72;;;15.06;100.00
24390;BME280;12510;56.468;-3.004;2023-05-19T02:35:51;101782.81;;;14.94;100.00
24390;BME280;12510;56.468;-3.004;2023-05-19T02:38:17;101775.69;;;14.84;100.00
24390;BME280;12510;56.468;-3.004;2023-05-19T02:40:44;101777.22;;;14.87;100.00
24390;BME280;12510;56.468;-3.004;2023-05-19T02:43:10;101788.22;;;14.82;100.00
24390;BME280;12510;56.468;-3.004;2023-05-19T02:45:37;101777.63;;;14.82;100.00
24390;BME280;12510;56.468;-3.004;2023-05-19T02:48:03;101778.44;;;14.83;100.00
24390;BME280;12510;56.468;-3.004;2023-05-19T02:50:30;101773.84;;;14.85;100.00
24390;BME280;12510;56.468;-3.004;2023-05-19T02:52:56;101779.09;;;14.65;100.00
24390;BME280;12510;56.468;-3.004;2023-05-19T02:55:22;101775.16;;;15.10;100.00
24390;BME280;12510;56.468;-3.004;2023-05-19T02:57:49;101772.75;;;14.97;100.00
24390;BME280;12510;56.468;-3.004;2023-05-19T03:00:15;101779.69;;;14.48;100.00
24390;BME280;12510;56.468;-3.004;2023-05-19T03:02:43;101780.94;;;14.74;100.00
24390;BME280;12510;56.468;-3.004;2023-05-19T03:05:10;101778.84;;;14.37;100.00
24390;BME280;12510;56.468;-3.004;2023-05-19T03:07:36;101784.31;;;14.77;100.00
24390;BME280;12510;56.468;-3.004;2023-05-19T03:10:03;101778.72;;;14.80;100.00
24390;BME280;12510;56.468;-3.004;2023-05-19T03:12:31;101777.75;;;14.71;100.00
24390;BME280;12510;56.468;-3.004;2023-05-19T03:14:59;101782.19;;;14.39;100.00
24390;BME280;12510;56.468;-3.004;2023-05-19T03:17:25;101788.44;;;14.38;100.00
24390;BME280;12510;56.468;-3.004;2023-05-19T03:19:53;101793.50;;;13.89;100.00
24390;BME280;12510;56.468;-3.004;2023-05-19T03:22:20;101796.03;;;13.91;100.00
24390;BME280;12510;56.468;-3.004;2023-05-19T03:24:46;101795.69;;;13.63;100.00
24390;BME280;12510;56.468;-3.004;2023-05-19T03:27:16;101810.16;;;13.59;100.00
24390;BME280;12510;56.468;-3.004;2023-05-19T03:29:42;101811.69;;;13.62;100.00
24390;BME280;12510;56.468;-3.004;2023-05-19T03:32:08;101806.47;;;13.50;100.00
24390;BME280;12510;56.468;-3.004;2023-05-19T03:34:35;101800.78;;;13.55;100.00
24390;BME280;12510;56.468;-3.004;2023-05-19T03:37:02;101797.53;;;13.51;100.00
24390;BME280;12510;56.468;-3.004;2023-05-19T03:39:29;101806.63;;;13.37;100.00
24390;BME280;12510;56.468;-3.004;2023-05-19T03:41:55;101795.16;;;13.48;100.00
24390;BME280;12510;56.468;-3.004;2023-05-19T03:44:22;101802.50;;;13.45;100.00
24390;BME280;12510;56.468;-3.004;2023-05-19T03:46:48;101795.94;;;13.60;100.00
24390;BME280;12510;56.468;-3.004;2023-05-19T03:49:33;101790.66;;;13.60;100.00
24390;BME280;12510;56.468;-3.004;2023-05-19T03:52:28;101796.22;;;13.57;100.00
24390;BME280;12510;56.468;-3.004;2023-05-19T03:55:03;101803.25;;;13.68;100.00
24390;BME280;12510;56.468;-3.004;2023-05-19T03:57:30;101811.00;;;13.60;100.00
24390;BME280;12510;56.468;-3.004;2023-05-19T03:59:57;101808.78;;;13.65;100.00
24390;BME280;12510;56.468;-3.004;2023-05-19T04:02:23;101816.97;;;13.73;100.00
24390;BME280;12510;56.468;-3.004;2023-05-19T04:04:50;101820.63;;;13.82;100.00
24390;BME280;12510;56.468;-3.004;2023-05-19T04:07:16;101820.22;;;14.07;100.00
24390;BME280;12510;56.468;-3.004;2023-05-19T04:09:43;101827.72;;;14.02;100.00
24390;BME280;12510;56.468;-3.004;2023-05-19T04:12:10;101830.19;;;14.15;100.00
24390;BME280;12510;56.468;-3.004;2023-05-19T04:14:36;101831.00;;;14.16;100.00
24390;BME280;12510;56.468;-3.004;2023-05-19T04:17:03;101825.00;;;14.35;100.00
24390;BME280;12510;56.468;-3.004;2023-05-19T04:19:29;101827.28;;;14.49;100.00
24390;BME280;12510;56.468;-3.004;2023-05-19T04:21:56;101827.41;;;14.48;100.00
24390;BME280;12510;56.468;-3.004;2023-05-19T04:24:22;101826.28;;;14.71;100.00
24390;BME280;12510;56.468;-3.004;2023-05-19T04:26:49;101826.78;;;14.96;100.00
24390;BME280;12510;56.468;-3.004;2023-05-19T04:29:17;101831.47;;;14.83;100.00
24390;BME280;12510;56.468;-3.004;2023-05-19T04:31:44;101829.31;;;15.07;100.00
24390;BME280;12510;56.468;-3.004;2023-05-19T04:34:11;101826.16;;;15.33;100.00
24390;BME280;12510;56.468;-3.004;2023-05-19T04:36:37;101825.88;;;15.46;100.00
24390;BME280;12510;56.468;-3.004;2023-05-19T04:39:04;101833.00;;;15.26;100.00
24390;BME280;12510;56.468;-3.004;2023-05-19T04:41:40;101834.53;;;15.38;100.00
24390;BME280;12510;56.468;-3.004;2023-05-19T04:44:08;101831.88;;;15.48;100.00
24390;BME280;12510;56.468;-3.004;2023-05-19T04:46:34;101830.06;;;15.49;100.00
24390;BME280;12510;56.468;-3.004;2023-05-19T04:49:01;101840.41;;;15.62;100.00
24390;BME280;12510;56.468;-3.004;2023-05-19T04:51:28;101829.38;;;15.86;100.00
24390;BME280;12510;56.468;-3.004;2023-05-19T04:53:57;101835.84;;;15.83;100.00
24390;BME280;12510;56.468;-3.004;2023-05-19T04:56:25;101841.97;;;15.74;100.00
24390;BME280;12510;56.468;-3.004;2023-05-19T04:58:53;101848.50;;;15.50;100.00
24390;BME280;12510;56.468;-3.004;2023-05-19T05:01:20;101856.22;;;15.83;100.00
24390;BME280;12510;56.468;-3.004;2023-05-19T05:03:54;101849.19;;;16.11;100.00
24390;BME280;12510;56.468;-3.004;2023-05-19T05:06:24;101851.88;;;16.49;100.00
24390;BME280;12510;56.468;-3.004;2023-05-19T05:08:50;101848.34;;;16.20;100.00
24390;BME280;12510;56.468;-3.004;2023-05-19T05:11:17;101849.09;;;16.50;100.00
24390;BME280;12510;56.468;-3.004;2023-05-19T05:13:44;101842.03;;;16.21;100.00
24390;BME280;12510;56.468;-3.004;2023-05-19T05:16:12;101844.94;;;16.38;100.00
24390;BME280;12510;56.468;-3.004;2023-05-19T05:18:38;101824.84;;;16.91;100.00
24390;BME280;12510;56.468;-3.004;2023-05-19T05:21:06;101832.25;;;16.59;100.00
24390;BME280;12510;56.468;-3.004;2023-05-19T05:23:34;101839.34;;;16.31;100.00
24390;BME280;12510;56.468;-3.004;2023-05-19T05:26:09;101847.91;;;16.25;100.00
24390;BME280;12510;56.468;-3.004;2023-05-19T05:28:42;101847.72;;;16.36;100.00
24390;BME280;12510;56.468;-3.004;2023-05-19T05:31:08;101835.13;;;16.76;100.00
24390;BME280;12510;56.468;-3.004;2023-05-19T05:33:35;101855.66;;;16.46;100.00
24390;BME280;12510;56.468;-3.004;2023-05-19T05:36:02;101852.31;;;15.97;100.00
24390;BME280;12510;56.468;-3.004;2023-05-19T05:38:30;101845.63;;;16.78;100.00
24390;BME280;12510;56.468;-3.004;2023-05-19T05:40:56;101850.03;;;16.97;100.00
24390;BME280;12510;56.468;-3.004;2023-05-19T05:43:23;101838.31;;;16.80;100.00
24390;BME280;12510;56.468;-3.004;2023-05-19T05:45:56;101845.03;;;17.12;100.00
24390;BME280;12510;56.468;-3.004;2023-05-19T05:48:22;101855.59;;;17.03;100.00
24390;BME280;12510;56.468;-3.004;2023-05-19T05:50:49;101842.84;;;17.25;100.00
24390;BME280;12510;56.468;-3.004;2023-05-19T05:53:20;101843.47;;;16.91;100.00
24390;BME280;12510;56.468;-3.004;2023-05-19T05:55:52;101855.44;;;17.05;100.00
24390;BME280;12510;56.468;-3.004;2023-05-19T05:58:21;101850.16;;;17.23;100.00
24390;BME280;12510;56.468;-3.004;2023-05-19T06:00:48;101849.22;;;17.14;100.00
24390;BME280;12510;56.468;-3.004;2023-05-19T06:03:16;101861.28;;;17.72;100.00
24390;BME280;12510;56.468;-3.004;2023-05-19T06:05:43;101857.59;;;17.91;100.00
24390;BME280;12510;56.468;-3.004;2023-05-19T06:08:09;101850.47;;;17.74;100.00
24390;BME280;12510;56.468;-3.004;2023-05-19T06:10:36;101858.56;;;17.90;100.00
24390;BME280;12510;56.468;-3.004;2023-05-19T06:13:07;101860.63;;;18.15;100.00
24390;BME280;12510;56.468;-3.004;2023-05-19T06:15:35;101870.03;;;17.65;100.00
24390;BME280;12510;56.468;-3.004;2023-05-19T06:18:24;101869.06;;;17.20;100.00
24390;BME280;12510;56.468;-3.004;2023-05-19T06:20:52;101860.09;;;18.11;100.00
24390;BME280;12510;56.468;-3.004;2023-05-19T06:23:18;101849.38;;;18.29;100.00
24390;BME280;12510;56.468;-3.004;2023-05-19T06:25:45;101858.59;;;18.69;100.00
24390;BME280;12510;56.468;-3.004;2023-05-19T06:28:12;101862.53;;;18.57;100.00
24390;BME280;12510;56.468;-3.004;2023-05-19T06:30:38;101863.31;;;18.23;100.00
24390;BME280;12510;56.468;-3.004;2023-05-19T06:33:17;101861.81;;;18.20;100.00
24390;BME280;12510;56.468;-3.004;2023-05-19T06:35:43;101863.00;;;18.52;100.00
24390;BME280;12510;56.468;-3.004;2023-05-19T06:38:10;101856.88;;;18.34;100.00
24390;BME280;12510;56.468;-3.004;2023-05-19T06:40:37;101855.72;;;18.02;100.00
24390;BME280;12510;56.468;-3.004;2023-05-19T06:43:03;101852.25;;;18.70;100.00
24390;BME280;12510;56.468;-3.004;2023-05-19T06:45:53;101850.38;;;18.28;100.00
24390;BME280;12510;56.468;-3.004;2023-05-19T06:48:20;101856.38;;;18.99;100.00
24390;BME280;12510;56.468;-3.004;2023-05-19T06:50:47;101855.28;;;18.75;100.00
24390;BME280;12510;56.468;-3.004;2023-05-19T06:53:18;101854.69;;;18.90;100.00
24390;BME280;12510;56.468;-3.004;2023-05-19T06:55:44;101860.38;;;18.95;100.00
24390;BME280;12510;56.468;-3.004;2023-05-19T06:58:13;101843.28;;;19.22;100.00
24390;BME280;12510;56.468;-3.004;2023-05-19T07:00:39;101844.78;;;20.16;100.00
24390;BME280;12510;56.468;-3.004;2023-05-19T07:03:09;101837.66;;;20.08;100.00
24390;BME280;12510;56.468;-3.004;2023-05-19T07:05:35;101862.53;;;19.51;100.00
24390;BME280;12510;56.468;-3.004;2023-05-19T07:08:02;101864.38;;;19.58;100.00
24390;BME280;12510;56.468;-3.004;2023-05-19T07:10:30;101862.38;;;20.02;100.00
24390;BME280;12510;56.468;-3.004;2023-05-19T07:12:56;101858.72;;;19.95;100.00
24390;BME280;12510;56.468;-3.004;2023-05-19T07:15:26;101864.84;;;20.28;100.00
24390;BME280;12510;56.468;-3.004;2023-05-19T07:17:53;101863.34;;;20.17;100.00
24390;BME280;12510;56.468;-3.004;2023-05-19T07:20:19;101868.53;;;19.61;100.00
24390;BME280;12510;56.468;-3.004;2023-05-19T07:22:46;101869.72;;;19.58;100.00
24390;BME280;12510;56.468;-3.004;2023-05-19T07:25:14;101870.06;;;19.72;100.00
24390;BME280;12510;56.468;-3.004;2023-05-19T07:27:40;101870.56;;;19.84;100.00
24390;BME280;12510;56.468;-3.004;2023-05-19T07:30:07;101861.94;;;20.46;100.00
24390;BME280;12510;56.468;-3.004;2023-05-19T07:32:34;101861.31;;;21.47;97.28
24390;BME280;12510;56.468;-3.004;2023-05-19T07:35:00;101858.44;;;20.93;100.00
24390;BME280;12510;56.468;-3.004;2023-05-19T07:37:26;101855.44;;;20.97;98.10
24390;BME280;12510;56.468;-3.004;2023-05-19T07:39:53;101832.28;;;22.71;86.91
24390;BME280;12510;56.468;-3.004;2023-05-19T07:42:19;101834.03;;;22.34;85.37
24390;BME280;12510;56.468;-3.004;2023-05-19T07:44:46;101829.31;;;23.61;77.96
24390;BME280;12510;56.468;-3.004;2023-05-19T07:47:12;101811.47;;;25.00;70.89
24390;BME280;12510;56.468;-3.004;2023-05-19T07:49:38;101802.78;;;25.25;62.38
24390;BME280;12510;56.468;-3.004;2023-05-19T07:52:05;101814.59;;;24.49;63.40
24390;BME280;12510;56.468;-3.004;2023-05-19T07:54:31;101802.63;;;25.87;59.07
24390;BME280;12510;56.468;-3.004;2023-05-19T07:56:58;101797.41;;;25.79;58.39
24390;BME280;12510;56.468;-3.004;2023-05-19T07:59:24;101797.63;;;25.77;57.76
24390;BME280;12510;56.468;-3.004;2023-05-19T08:01:51;101791.31;;;26.82;55.48
24390;BME280;12510;56.468;-3.004;2023-05-19T08:04:17;101777.28;;;28.98;51.42
24390;BME280;12510;56.468;-3.004;2023-05-19T08:06:44;101782.69;;;27.24;49.81
24390;BME280;12510;56.468;-3.004;2023-05-19T08:09:10;101803.00;;;25.84;56.01
24390;BME280;12510;56.468;-3.004;2023-05-19T08:11:37;101788.88;;;27.31;53.90
24390;BME280;12510;56.468;-3.004;2023-05-19T08:14:03;101793.53;;;27.24;53.25
24390;BME280;12510;56.468;-3.004;2023-05-19T08:16:30;101794.28;;;27.31;53.84
24390;BME280;12510;56.468;-3.004;2023-05-19T08:18:56;101820.28;;;25.56;59.28
24390;BME280;12510;56.468;-3.004;2023-05-19T08:21:23;101796.72;;;26.23;53.49
24390;BME280;12510;56.468;-3.004;2023-05-19T08:23:49;101757.53;;;26.98;45.36
24390;BME280;12510;56.468;-3.004;2023-05-19T08:26:16;101790.78;;;25.61;49.78
24390;BME280;12510;56.468;-3.004;2023-05-19T08:28:42;101764.56;;;26.15;44.56
24390;BME280;12510;56.468;-3.004;2023-05-19T08:31:09;101764.19;;;25.98;44.12
24390;BME280;12510;56.468;-3.004;2023-05-19T08:33:35;101756.31;;;27.70;41.80
24390;BME280;12510;56.468;-3.004;2023-05-19T08:36:02;101758.66;;;27.16;42.05
24390;BME280;12510;56.468;-3.004;2023-05-19T08:38:28;101747.13;;;26.95;39.87
24390;BME280;12510;56.468;-3.004;2023-05-19T08:40:55;101722.56;;;27.91;37.36
24390;BME280;12510;56.468;-3.004;2023-05-19T08:43:23;101724.94;;;25.96;37.03
24390;BME280;12510;56.468;-3.004;2023-05-19T08:45:49;101703.78;;;27.08;35.37
24390;BME280;12510;56.468;-3.004;2023-05-19T08:48:21;101721.53;;;28.11;37.61
24390;BME280;12510;56.468;-3.004;2023-05-19T08:53:41;101710.09;;;26.32;36.38
24390;BME280;12510;56.468;-3.004;2023-05-19T08:56:16;101730.59;;;25.81;37.68
24390;BME280;12510;56.468;-3.004;2023-05-19T08:58:45;101712.66;;;26.90;35.27
24390;BME280;12510;56.468;-3.004;2023-05-19T09:01:14;101712.19;;;27.51;35.51
24390;BME280;12510;56.468;-3.004;2023-05-19T09:03:44;101686.47;;;28.16;32.31
24390;BME280;12510;56.468;-3.004;2023-05-19T09:06:11;101685.78;;;28.93;31.97
24390;BME280;12510;56.468;-3.004;2023-05-19T09:08:39;101690.66;;;29.26;32.48
24390;BME280;12510;56.468;-3.004;2023-05-19T09:11:06;101680.22;;;29.71;29.83
24390;BME280;12510;56.468;-3.004;2023-05-19T09:13:33;101672.25;;;28.63;29.02
24390;BME280;12510;56.468;-3.004;2023-05-19T09:16:00;101676.41;;;27.49;29.90
24390;BME280;12510;56.468;-3.004;2023-05-19T09:18:27;101698.44;;;30.11;31.90
24390;BME280;12510;56.468;-3.004;2023-05-19T09:20:57;101695.88;;;27.95;30.52
24390;BME280;12510;56.468;-3.004;2023-05-19T09:23:32;101684.53;;;27.67;29.86
24390;BME280;12510;56.468;-3.004;2023-05-19T09:26:04;101708.44;;;27.01;32.02
24390;BME280;12510;56.468;-3.004;2023-05-19T09:28:35;101739.25;;;26.55;36.10
24390;BME280;12510;56.468;-3.004;2023-05-19T09:31:05;101765.72;;;27.17;39.93
24390;BME280;12510;56.468;-3.004;2023-05-19T09:33:34;101734.38;;;25.19;35.50
24390;BME280;12510;56.468;-3.004;2023-05-19T09:36:02;101749.22;;;24.75;37.31
24390;BME280;12510;56.468;-3.004;2023-05-19T09:38:31;101751.22;;;24.53;38.00
24390;BME280;12510;56.468;-3.004;2023-05-19T09:40:59;101762.34;;;24.36;39.74
24390;BME280;12510;56.468;-3.004;2023-05-19T09:43:30;101761.88;;;24.68;39.04
24390;BME280;12510;56.468;-3.004;2023-05-19T09:48:34;101777.03;;;24.75;39.52
24390;BME280;12510;56.468;-3.004;2023-05-19T09:51:02;101786.13;;;24.74;40.30
24390;BME280;12510;56.468;-3.004;2023-05-19T09:53:30;101760.63;;;24.64;38.98
24390;BME280;12510;56.468;-3.004;2023-05-19T09:55:57;101831.41;;;25.33;52.55
24390;BME280;12510;56.468;-3.004;2023-05-19T09:58:25;101773.13;;;25.12;38.19
24390;BME280;12510;56.468;-3.004;2023-05-19T10:00:52;101790.88;;;24.31;41.53
24390;BME280;12510;56.468;-3.004;2023-05-19T10:03:22;101788.75;;;24.13;41.11
24390;BME280;12510;56.468;-3.004;2023-05-19T10:05:52;101796.16;;;24.10;42.67
24390;BME280;12510;56.468;-3.004;2023-05-19T10:08:18;101792.53;;;23.68;42.56
24390;BME280;12510;56.468;-3.004;2023-05-19T10:10:46;101802.44;;;24.24;43.59
24390;BME280;12510;56.468;-3.004;2023-05-19T10:13:13;101796.06;;;23.69;43.20
24390;BME280;12510;56.468;-3.004;2023-05-19T10:15:41;101802.16;;;23.56;43.89
24390;BME280;12510;56.468;-3.004;2023-05-19T10:18:09;101808.50;;;23.98;44.01
24390;BME280;12510;56.468;-3.004;2023-05-19T10:20:38;101786.00;;;24.48;41.58
24390;BME280;12510;56.468;-3.004;2023-05-19T10:23:05;101791.72;;;23.68;41.41
24390;BME280;12510;56.468;-3.004;2023-05-19T10:25:32;101803.28;;;22.82;42.70
24390;BME280;12510;56.468;-3.004;2023-05-19T10:28:12;101804.38;;;23.46;43.12
24390;BME280;12510;56.468;-3.004;2023-05-19T10:30:41;101822.03;;;24.47;44.08
24390;BME280;12510;56.468;-3.004;2023-05-19T10:33:12;101799.09;;;24.16;41.21
24390;BME280;12510;56.468;-3.004;2023-05-19T10:36:08;101784.81;;;24.15;39.12
24390;BME280;12510;56.468;-3.004;2023-05-19T10:38:45;101804.38;;;24.86;40.87
24390;BME280;12510;56.468;-3.004;2023-05-19T10:44:22;101757.25;;;26.29;35.75
24390;BME280;12510;56.468;-3.004;2023-05-19T10:46:52;101766.47;;;26.53;36.51
24390;BME280;12510;56.468;-3.004;2023-05-19T10:49:20;101743.91;;;27.12;34.15
24390;BME280;12510;56.468;-3.004;2023-05-19T10:51:47;101759.50;;;25.47;35.60
24390;BME280;12510;56.468;-3.004;2023-05-19T10:54:14;101775.00;;;25.85;37.11
24390;BME280;12510;56.468;-3.004;2023-05-19T10:56:43;101775.94;;;24.70;37.75
24390;BME280;12510;56.468;-3.004;2023-05-19T10:59:32;101774.25;;;24.20;38.96
24390;BME280;12510;56.468;-3.004;2023-05-19T11:02:03;101764.38;;;24.76;37.27
24390;BME280;12510;56.468;-3.004;2023-05-19T11:04:48;101773.63;;;24.12;38.90
24390;BME280;12510;56.468;-3.004;2023-05-19T11:07:19;101776.22;;;23.98;39.58
24390;BME280;12510;56.468;-3.004;2023-05-19T11:09:50;101779.81;;;25.56;38.73
24390;BME280;12510;56.468;-3.004;2023-05-19T11:12:21;101806.16;;;25.40;45.58
24390;BME280;12510;56.468;-3.004;2023-05-19T11:14:51;101782.44;;;24.89;41.05
24390;BME280;12510;56.468;-3.004;2023-05-19T11:17:17;101787.88;;;25.16;41.73
24390;BME280;12510;56.468;-3.004;2023-05-19T11:19:56;101782.53;;;25.42;42.25
24390;BME280;12510;56.468;-3.004;2023-05-19T11:22:25;101788.31;;;25.46;42.83
24390;BME280;12510;56.468;-3.004;2023-05-19T11:24:55;101782.03;;;25.05;40.38
24390;BME280;12510;56.468;-3.004;2023-05-19T11:27:26;101806.31;;;25.12;44.18
24390;BME280;12510;56.468;-3.004;2023-05-19T11:32:35;101777.09;;;25.09;39.72
24390;BME280;12510;56.468;-3.004;2023-05-19T11:35:04;101800.44;;;24.82;41.94
24390;BME280;12510;56.468;-3.004;2023-05-19T11:37:31;101775.00;;;25.24;38.24
24390;BME280;12510;56.468;-3.004;2023-05-19T11:40:00;101804.47;;;25.33;43.57
24390;BME280;12510;56.468;-3.004;2023-05-19T11:42:27;101780.78;;;26.08;37.63
24390;BME280;12510;56.468;-3.004;2023-05-19T11:44:56;101792.00;;;25.85;39.73
24390;BME280;12510;56.468;-3.004;2023-05-19T11:47:23;101772.47;;;24.34;37.00
24390;BME280;12510;56.468;-3.004;2023-05-19T11:49:50;101795.09;;;23.76;41.18
24390;BME280;12510;56.468;-3.004;2023-05-19T11:52:23;101786.19;;;25.08;40.62
24390;BME280;12510;56.468;-3.004;2023-05-19T11:54:50;101793.56;;;24.72;41.72
24390;BME280;12510;56.468;-3.004;2023-05-19T11:57:18;101789.84;;;23.90;41.76
24390;BME280;12510;56.468;-3.004;2023-05-19T11:59:44;101810.31;;;23.91;45.72
24390;BME280;12510;56.468;-3.004;2023-05-19T12:02:22;101774.16;;;24.90;38.46
24390;BME280;12510;56.468;-3.004;2023-05-19T12:04:53;101771.28;;;25.32;37.40
24390;BME280;12510;56.468;-3.004;2023-05-19T12:07:23;101782.16;;;24.64;38.86
24390;BME280;12510;56.468;-3.004;2023-05-19T12:09:52;101797.81;;;24.53;39.35
24390;BME280;12510;56.468;-3.004;2023-05-19T12:12:21;101793.03;;;23.50;39.61
24390;BME280;12510;56.468;-3.004;2023-05-19T12:14:50;101798.06;;;24.58;40.13
24390;BME280;12510;56.468;-3.004;2023-05-19T12:17:18;101768.91;;;24.27;36.68
24390;BME280;12510;56.468;-3.004;2023-05-19T12:19:48;101781.56;;;23.91;39.19
24390;BME280;12510;56.468;-3.004;2023-05-19T12:22:15;101788.25;;;25.13;38.55
24390;BME280;12510;56.468;-3.004;2023-05-19T12:24:43;101789.16;;;25.73;39.27
24390;BME280;12510;56.468;-3.004;2023-05-19T12:27:10;101764.47;;;23.49;37.08
24390;BME280;12510;56.468;-3.004;2023-05-19T12:29:40;101767.66;;;24.71;37.59
24390;BME280;12510;56.468;-3.004;2023-05-19T12:32:07;101782.66;;;25.07;38.34
24390;BME280;12510;56.468;-3.004;2023-05-19T12:34:35;101774.56;;;23.69;37.78
24390;BME280;12510;56.468;-3.004;2023-05-19T12:37:03;101788.03;;;23.47;39.00
24390;BME280;12510;56.468;-3.004;2023-05-19T12:39:30;101791.53;;;24.81;40.71
24390;BME280;12510;56.468;-3.004;2023-05-19T12:42:06;101780.75;;;24.81;40.02
24390;BME280;12510;56.468;-3.004;2023-05-19T12:44:36;101782.41;;;24.34;39.74
24390;BME280;12510;56.468;-3.004;2023-05-19T12:47:04;101787.84;;;24.96;40.44
24390;BME280;12510;56.468;-3.004;2023-05-19T12:49:33;101781.69;;;24.60;38.48
24390;BME280;12510;56.468;-3.004;2023-05-19T12:52:02;101777.63;;;24.29;38.33
24390;BME280;12510;56.468;-3.004;2023-05-19T12:54:33;101785.16;;;24.47;38.72
24390;BME280;12510;56.468;-3.004;2023-05-19T12:56:59;101787.22;;;24.45;39.66
24390;BME280;12510;56.468;-3.004;2023-05-19T12:59:26;101771.47;;;24.00;37.76
24390;BME280;12510;56.468;-3.004;2023-05-19T13:01:58;101827.88;;;24.57;47.56
24390;BME280;12510;56.468;-3.004;2023-05-19T13:04:25;101850.75;;;24.68;53.06
24390;BME280;12510;56.468;-3.004;2023-05-19T13:06:52;101777.13;;;24.60;38.19
24390;BME280;12510;56.468;-3.004;2023-05-19T13:09:19;101775.28;;;24.61;38.23
24390;BME280;12510;56.468;-3.004;2023-05-19T13:11:46;101775.94;;;24.70;37.94
24390;BME280;12510;56.468;-3.004;2023-05-19T13:14:19;101784.03;;;24.70;39.64